Time;durP1;ratioP1;P1;durP2;ratioP2;P2;SDS_P1;SDS_P2;PMS_P1;PMS_P2;Temp;Humidity;BMP_temperature;BMP_pressure;BME280_temperature;BME280_humidity;BME280_pressure;Samples;Min_cycle;Max_cycle;Signal;HPM_P1;HPM_P2
2022/01/10 00:00:03;;;;;;;18.10;6.68;;;5.60;99.90;;;;;;5113152;27;20490;-72
2022/01/10 00:02:29;;;;;;;27.75;7.28;;;4.90;99.90;;;;;;5130700;27;20070;-71
2022/01/10 00:04:54;;;;;;;19.67;6.25;;;5.10;99.90;;;;;;5068079;27;20067;-72
2022/01/10 00:07:20;;;;;;;23.55;6.97;;;5.00;99.90;;;;;;5114723;27;20035;-71
2022/01/10 00:09:46;;;;;;;16.38;6.70;;;5.10;99.90;;;;;;5112997;27;20077;-74
2022/01/10 00:12:11;;;;;;;22.92;6.70;;;4.70;99.90;;;;;;5113404;27;20046;-72
2022/01/10 00:14:37;;;;;;;22.95;6.80;;;4.90;99.90;;;;;;5131870;27;20427;-74
2022/01/10 00:17:04;;;;;;;18.98;6.95;;;4.40;99.90;;;;;;5111435;27;20039;-72
2022/01/10 00:19:30;;;;;;;17.80;6.63;;;4.50;99.90;;;;;;5131596;27;20053;-71
2022/01/10 00:21:55;;;;;;;14.88;6.18;;;4.30;99.90;;;;;;5115035;27;20047;-73
2022/01/10 00:24:22;;;;;;;17.70;6.03;;;4.30;99.90;;;;;;5114613;27;20702;-72
2022/01/10 00:26:48;;;;;;;12.38;5.45;;;4.30;99.90;;;;;;5129407;27;20479;-74
2022/01/10 00:29:13;;;;;;;21.25;5.45;;;4.90;99.90;;;;;;5113895;27;20031;-73
2022/01/10 00:31:39;;;;;;;14.45;5.47;;;4.20;99.90;;;;;;5134318;27;20519;-72
2022/01/10 00:34:05;;;;;;;19.50;5.88;;;4.30;99.90;;;;;;5137170;27;20046;-71
2022/01/10 00:36:30;;;;;;;20.38;5.82;;;4.80;99.90;;;;;;5118360;27;20043;-75
2022/01/10 00:38:57;;;;;;;23.60;6.57;;;4.20;99.90;;;;;;5134126;27;20051;-73
2022/01/10 00:41:23;;;;;;;18.08;5.93;;;4.80;99.90;;;;;;5135715;27;20034;-72
2022/01/10 00:43:50;;;;;;;22.10;6.45;;;4.10;99.90;;;;;;5115175;27;20027;-71
2022/01/10 00:46:17;;;;;;;18.35;5.05;;;4.70;99.90;;;;;;5117982;27;20035;-73
2022/01/10 00:48:43;;;;;;;24.00;5.53;;;4.30;99.90;;;;;;5117874;27;20035;-72
2022/01/10 00:51:09;;;;;;;14.82;4.32;;;4.10;99.90;;;;;;5130474;27;20577;-72
2022/01/10 00:53:36;;;;;;;18.20;5.18;;;4.70;99.90;;;;;;5114793;27;20049;-73
2022/01/10 00:56:02;;;;;;;23.33;4.22;;;4.70;99.90;;;;;;5115359;27;20055;-72
2022/01/10 00:58:28;;;;;;;17.35;4.95;;;3.90;99.90;;;;;;5135050;27;20050;-72
2022/01/10 01:00:53;;;;;;;24.45;4.97;;;4.10;99.90;;;;;;5115715;27;20035;-76
2022/01/10 01:03:19;;;;;;;10.30;4.43;;;4.60;99.90;;;;;;5153546;27;20113;-73
2022/01/10 01:05:45;;;;;;;17.17;4.95;;;3.80;99.90;;;;;;5133704;27;20041;-74
2022/01/10 01:08:13;;;;;;;19.75;4.68;;;3.80;99.90;;;;;;5117259;27;20428;-74
2022/01/10 01:16:18;;;;;;;18.58;4.15;;;4.60;99.90;;;;;;5092695;28;20049;-73
2022/01/10 01:24:15;;;;;;;16.67;5.13;;;4.70;99.90;;;;;;5146116;27;20038;-75
2022/01/10 01:26:46;;;;;;;22.10;5.82;;;3.80;99.90;;;;;;5135177;27;20046;-74
2022/01/10 01:29:17;;;;;;;17.65;5.05;;;4.60;99.90;;;;;;5132326;27;20035;-73
2022/01/10 01:31:44;;;;;;;16.42;5.55;;;4.60;99.90;;;;;;5134012;27;20049;-75
2022/01/10 01:34:11;;;;;;;19.83;4.78;;;4.70;99.90;;;;;;5134241;27;20091;-72
2022/01/10 01:36:38;;;;;;;14.57;5.63;;;3.70;99.90;;;;;;5135071;27;20042;-73
2022/01/10 01:39:16;;;;;;;15.80;4.93;;;3.70;99.90;;;;;;5116285;27;20047;-73
2022/01/10 01:41:43;;;;;;;19.60;5.13;;;4.50;99.90;;;;;;5116325;27;20095;-72
2022/01/10 01:44:08;;;;;;;19.70;5.68;;;3.70;99.90;;;;;;5135147;27;20039;-73
2022/01/10 01:46:35;;;;;;;18.40;6.57;;;4.60;99.90;;;;;;5117535;27;20099;-74
2022/01/10 01:49:02;;;;;;;16.27;5.22;;;4.00;99.90;;;;;;5134259;27;20042;-73
2022/01/10 01:51:28;;;;;;;20.50;6.45;;;3.80;99.90;;;;;;5114338;27;20039;-73
2022/01/10 01:53:54;;;;;;;22.98;6.00;;;3.60;99.90;;;;;;5133256;27;20615;-72
2022/01/10 01:56:20;;;;;;;11.68;5.65;;;4.50;99.90;;;;;;5109922;27;20046;-73
2022/01/10 01:58:47;;;;;;;23.90;6.93;;;4.50;99.90;;;;;;5127108;27;20042;-73
2022/01/10 02:01:16;;;;;;;21.35;6.50;;;4.10;99.90;;;;;;5116876;27;20051;-72
2022/01/10 02:03:42;;;;;;;15.65;5.57;;;4.40;99.90;;;;;;5133376;27;20074;-72
2022/01/10 02:06:09;;;;;;;22.58;6.78;;;5.20;99.90;;;;;;5133892;27;20037;-74
2022/01/10 02:08:36;;;;;;;17.73;5.80;;;3.60;99.90;;;;;;5134775;27;20049;-72
2022/01/10 02:11:04;;;;;;;25.45;6.88;;;4.80;99.90;;;;;;5114201;27;20693;-73
2022/01/10 02:13:30;;;;;;;18.25;6.90;;;4.10;99.90;;;;;;5100040;27;20534;-74
2022/01/10 02:15:59;;;;;;;22.25;6.18;;;4.40;99.90;;;;;;5117241;27;20121;-73
2022/01/10 02:18:25;;;;;;;25.50;6.32;;;4.00;99.90;;;;;;5117571;27;20035;-73
2022/01/10 02:20:51;;;;;;;22.63;6.63;;;3.70;99.90;;;;;;5115049;27;20126;-73
2022/01/10 02:23:18;;;;;;;19.70;6.57;;;3.90;99.90;;;;;;5134120;27;20046;-73
2022/01/10 02:25:45;;;;;;;20.80;7.13;;;4.00;99.90;;;;;;5109744;27;20039;-74
2022/01/10 02:28:11;;;;;;;13.63;5.68;;;3.50;99.90;;;;;;5111732;27;20117;-74
2022/01/10 02:30:37;;;;;;;17.73;6.28;;;4.40;99.90;;;;;;5133407;27;20557;-72
2022/01/10 02:33:03;;;;;;;22.13;6.05;;;3.40;99.90;;;;;;5132366;27;20035;-73
2022/01/10 02:35:45;;;;;;;16.42;5.63;;;3.50;99.90;;;;;;5113155;27;20386;-72
2022/01/10 02:38:11;;;;;;;16.85;6.20;;;4.20;99.90;;;;;;5112029;27;20129;-73
2022/01/10 02:40:37;;;;;;;24.55;7.40;;;4.20;99.90;;;;;;5132866;27;20118;-73
2022/01/10 02:43:07;;;;;;;19.95;7.00;;;3.50;99.90;;;;;;5129513;27;20027;-73
2022/01/10 02:45:33;;;;;;;29.05;8.48;;;4.40;99.90;;;;;;5104569;27;20047;-72
2022/01/10 02:47:59;;;;;;;24.33;7.65;;;4.10;99.90;;;;;;5115826;27;20037;-73
2022/01/10 02:50:25;;;;;;;23.30;7.00;;;3.50;99.90;;;;;;5116853;27;20053;-73
2022/01/10 02:52:51;;;;;;;27.15;8.13;;;4.50;99.90;;;;;;5113207;27;20037;-72
2022/01/10 02:55:17;;;;;;;20.27;6.70;;;3.70;99.90;;;;;;5112033;27;20051;-72
2022/01/10 02:57:43;;;;;;;24.90;7.05;;;4.50;99.90;;;;;;5111518;27;20190;-71
2022/01/10 03:00:19;;;;;;;23.23;6.88;;;4.20;99.90;;;;;;5131572;27;20043;-73
2022/01/10 03:02:49;;;;;;;20.80;6.97;;;4.20;99.90;;;;;;5129842;27;20492;-73
2022/01/10 03:05:16;;;;;;;17.40;6.22;;;4.50;99.90;;;;;;5132090;27;20095;-73
2022/01/10 03:07:42;;;;;;;19.73;6.53;;;4.40;99.90;;;;;;5113997;27;20039;-72
2022/01/10 03:10:08;;;;;;;23.17;7.00;;;4.40;99.90;;;;;;5131990;27;20047;-73
2022/01/10 03:12:35;;;;;;;25.65;6.57;;;3.40;99.90;;;;;;5132535;27;20502;-72
2022/01/10 03:15:07;;;;;;;17.95;6.35;;;3.30;99.90;;;;;;5134128;27;20126;-74
2022/01/10 03:17:34;;;;;;;26.17;8.18;;;3.50;99.90;;;;;;5114953;27;20103;-74
2022/01/10 03:19:59;;;;;;;17.80;7.15;;;4.40;99.90;;;;;;5132480;27;20064;-73
2022/01/10 03:22:26;;;;;;;25.33;7.18;;;3.90;99.90;;;;;;5128560;27;20640;-73
2022/01/10 03:24:55;;;;;;;26.27;6.93;;;3.70;99.90;;;;;;5115216;27;20358;-72
2022/01/10 03:27:21;;;;;;;16.20;6.80;;;4.40;99.90;;;;;;5113520;27;20039;-74
2022/01/10 03:29:47;;;;;;;29.20;7.63;;;4.30;99.90;;;;;;5128173;27;20035;-73
2022/01/10 03:32:12;;;;;;;16.27;7.60;;;4.10;99.90;;;;;;5129402;27;20063;-74
2022/01/10 03:34:39;;;;;;;20.63;7.18;;;4.40;99.90;;;;;;5111701;27;20035;-72
2022/01/10 03:37:06;;;;;;;16.00;6.20;;;3.30;99.90;;;;;;5106158;27;20054;-73
2022/01/10 03:39:33;;;;;;;23.08;7.15;;;4.30;99.90;;;;;;5129028;27;20406;-74
2022/01/10 03:41:59;;;;;;;22.77;7.63;;;3.40;99.90;;;;;;5103128;27;20047;-74
2022/01/10 03:44:24;;;;;;;24.15;8.00;;;3.50;99.90;;;;;;5108577;27;20031;-73
2022/01/10 03:46:50;;;;;;;27.45;7.57;;;4.20;99.90;;;;;;5112004;27;20443;-72
2022/01/10 03:49:16;;;;;;;21.58;6.57;;;4.20;99.90;;;;;;5115315;27;20055;-74
2022/01/10 03:51:43;;;;;;;15.65;6.18;;;4.10;99.90;;;;;;5098690;27;20043;-75
2022/01/10 03:54:08;;;;;;;15.98;6.30;;;3.60;99.90;;;;;;5132891;27;20674;-72
2022/01/10 03:56:35;;;;;;;20.25;6.38;;;3.20;99.90;;;;;;5131204;27;20050;-72
2022/01/10 03:59:00;;;;;;;15.52;6.25;;;4.10;99.90;;;;;;5113527;27;20118;-72
2022/01/10 04:01:31;;;;;;;20.50;6.57;;;3.20;99.90;;;;;;5114519;27;20134;-74
2022/01/10 04:03:56;;;;;;;21.25;6.63;;;3.10;99.90;;;;;;5108959;27;20117;-73
2022/01/10 04:06:22;;;;;;;22.88;7.18;;;3.40;99.90;;;;;;5114023;27;20117;-72
2022/01/10 04:08:48;;;;;;;22.55;7.53;;;4.00;99.90;;;;;;5108734;27;20043;-74
2022/01/10 04:11:14;;;;;;;17.42;6.85;;;3.00;99.90;;;;;;5092292;28;20403;-72
2022/01/10 04:13:40;;;;;;;14.48;5.50;;;4.00;99.90;;;;;;5089813;28;20047;-73
2022/01/10 04:16:06;;;;;;;15.15;5.57;;;4.00;99.90;;;;;;5091663;28;20061;-75
2022/01/10 04:18:32;;;;;;;20.42;6.22;;;2.90;99.90;;;;;;5109387;28;20047;-75
2022/01/10 04:21:04;;;;;;;15.70;6.20;;;3.80;99.90;;;;;;5107674;28;20479;-76
2022/01/10 04:23:30;;;;;;;15.35;5.75;;;3.30;99.90;;;;;;5091865;28;20039;-76
2022/01/10 04:25:56;;;;;;;22.45;5.85;;;3.60;99.90;;;;;;5090007;28;20031;-74
2022/01/10 04:28:22;;;;;;;12.43;5.88;;;3.70;99.90;;;;;;5106300;28;20421;-75
2022/01/10 04:30:48;;;;;;;17.63;6.95;;;3.20;99.90;;;;;;5089344;28;20047;-74
2022/01/10 04:33:18;;;;;;;15.60;6.35;;;2.60;99.90;;;;;;5090825;28;20487;-76
2022/01/10 04:35:46;;;;;;;16.92;7.00;;;2.80;99.90;;;;;;5090148;28;20082;-73
2022/01/10 04:38:12;;;;;;;20.80;8.05;;;2.90;99.90;;;;;;5106002;28;20119;-74
2022/01/10 04:40:38;;;;;;;17.83;6.88;;;3.00;99.90;;;;;;5108459;28;20119;-73
2022/01/10 04:43:04;;;;;;;21.90;7.38;;;3.00;99.90;;;;;;5090638;28;20126;-73
2022/01/10 04:45:30;;;;;;;19.02;8.18;;;3.60;99.90;;;;;;5107032;28;20052;-75
2022/01/10 04:47:55;;;;;;;16.67;7.88;;;3.60;99.90;;;;;;5089142;28;20349;-75
2022/01/10 04:52:52;;;;;;;23.75;9.45;;;2.60;99.90;;;;;;5107626;28;20043;-73
2022/01/10 04:55:19;;;;;;;20.00;7.90;;;3.50;99.90;;;;;;5105995;28;20046;-73
2022/01/10 04:57:44;;;;;;;28.67;9.45;;;3.70;99.90;;;;;;5090190;28;20027;-73
2022/01/10 05:00:13;;;;;;;27.80;10.05;;;2.50;99.90;;;;;;5108160;28;20754;-74
2022/01/10 05:02:41;;;;;;;25.50;10.07;;;3.20;99.90;;;;;;5077816;28;20173;-74
2022/01/10 05:05:07;;;;;;;29.83;10.65;;;4.50;99.90;;;;;;5089036;28;20643;-74
2022/01/10 05:07:32;;;;;;;29.00;11.38;;;2.60;99.90;;;;;;5106358;28;20143;-75
2022/01/10 05:09:58;;;;;;;34.03;12.65;;;3.90;99.90;;;;;;5052011;28;20625;-74
2022/01/10 05:12:26;;;;;;;35.80;12.90;;;3.10;99.90;;;;;;5077461;28;20031;-74
2022/01/10 05:14:52;;;;;;;37.03;13.95;;;3.90;99.90;;;;;;5127549;28;20088;-73
2022/01/10 05:17:22;;;;;;;23.98;11.90;;;3.10;99.90;;;;;;5111564;27;20934;-74
2022/01/10 05:19:48;;;;;;;27.85;13.65;;;3.70;99.90;;;;;;5130673;27;20383;-74
2022/01/10 05:22:14;;;;;;;33.65;12.73;;;4.00;99.90;;;;;;5097794;27;20039;-74
2022/01/10 05:24:40;;;;;;;37.35;14.63;;;3.00;99.90;;;;;;5115130;27;20047;-74
2022/01/10 05:27:06;;;;;;;37.30;13.05;;;3.10;99.90;;;;;;5129022;27;20083;-74
2022/01/10 05:29:32;;;;;;;38.03;14.90;;;4.00;99.90;;;;;;5112982;27;20130;-73
2022/01/10 05:31:58;;;;;;;36.42;15.35;;;3.70;99.90;;;;;;5131245;27;20043;-73
2022/01/10 05:34:24;;;;;;;49.13;18.35;;;3.80;99.90;;;;;;5132117;27;20039;-73
2022/01/10 05:36:50;;;;;;;38.78;16.67;;;2.90;99.90;;;;;;5114774;27;20533;-74
2022/01/10 05:39:16;;;;;;;42.15;18.38;;;3.80;99.90;;;;;;5123743;27;20047;-72
2022/01/10 05:41:43;;;;;;;37.28;16.90;;;4.20;99.90;;;;;;5128801;27;20058;-73
2022/01/10 05:44:08;;;;;;;36.72;15.65;;;3.00;99.90;;;;;;5132055;27;20043;-72
2022/01/10 05:46:38;;;;;;;39.20;15.73;;;3.60;99.90;;;;;;5113023;27;20100;-75
2022/01/10 05:49:06;;;;;;;39.42;16.27;;;3.90;99.90;;;;;;5130600;27;20113;-75
2022/01/10 05:51:34;;;;;;;34.95;15.02;;;3.30;99.90;;;;;;5114188;27;20042;-74
2022/01/10 05:54:01;;;;;;;58.25;17.08;;;3.80;99.90;;;;;;5113450;27;20050;-75
2022/01/10 05:56:27;;;;;;;36.97;17.77;;;2.90;99.90;;;;;;5130418;27;20039;-73
2022/01/10 05:58:53;;;;;;;51.38;19.17;;;4.10;99.90;;;;;;5131265;27;20042;-73
2022/01/10 06:01:19;;;;;;;39.33;16.75;;;4.10;99.90;;;;;;5112659;27;20051;-73
2022/01/10 06:03:45;;;;;;;33.58;16.17;;;4.00;99.90;;;;;;5130279;27;20051;-73
2022/01/10 06:06:11;;;;;;;39.15;16.13;;;3.00;99.90;;;;;;5129815;27;20019;-71
2022/01/10 06:08:40;;;;;;;42.03;17.88;;;3.40;99.90;;;;;;5128908;27;20043;-72
2022/01/10 06:11:06;;;;;;;39.53;17.08;;;5.10;99.90;;;;;;5112307;27;20146;-73
2022/01/10 06:13:37;;;;;;;30.80;15.73;;;4.30;99.90;;;;;;5113520;27;20122;-73
2022/01/10 06:16:03;;;;;;;38.42;15.43;;;2.80;99.90;;;;;;5113252;27;20039;-73
2022/01/10 06:18:29;;;;;;;40.40;15.40;;;3.10;99.90;;;;;;5131445;27;20146;-73
2022/01/10 06:20:58;;;;;;;34.67;15.65;;;3.40;99.90;;;;;;5095520;27;20481;-73
2022/01/10 06:23:25;;;;;;;35.90;15.63;;;3.40;99.90;;;;;;5113544;27;20182;-73
2022/01/10 06:25:51;;;;;;;29.77;14.02;;;3.80;99.90;;;;;;5128142;27;20054;-72
2022/01/10 06:28:18;;;;;;;30.02;14.63;;;3.80;99.90;;;;;;5130303;27;20034;-74
2022/01/10 06:30:44;;;;;;;29.05;14.32;;;2.60;99.90;;;;;;5130710;27;20043;-72
2022/01/10 06:33:10;;;;;;;34.65;14.77;;;3.30;99.90;;;;;;5113910;27;20740;-73
2022/01/10 06:35:36;;;;;;;32.53;15.07;;;3.70;99.90;;;;;;5096673;27;20035;-74
2022/01/10 06:38:02;;;;;;;27.40;13.93;;;3.70;99.90;;;;;;5113989;27;20043;-73
2022/01/10 06:40:28;;;;;;;33.25;15.38;;;2.80;99.90;;;;;;5113601;27;20380;-73
2022/01/10 06:42:54;;;;;;;33.60;15.98;;;3.70;99.90;;;;;;5096148;27;20108;-72
2022/01/10 06:45:20;;;;;;;35.25;14.90;;;3.20;99.90;;;;;;5129015;27;20890;-73
2022/01/10 06:47:45;;;;;;;31.58;14.68;;;3.50;99.90;;;;;;5113502;27;20065;-73
2022/01/10 06:50:11;;;;;;;41.28;18.10;;;3.70;99.90;;;;;;5112581;27;20113;-73
2022/01/10 06:52:37;;;;;;;45.78;18.52;;;3.90;99.90;;;;;;5113732;27;20540;-74
2022/01/10 06:55:04;;;;;;;38.60;17.45;;;4.30;99.90;;;;;;5092026;28;20094;-72
2022/01/10 06:57:32;;;;;;;37.47;16.90;;;2.80;99.90;;;;;;5130009;27;20100;-73
2022/01/10 06:59:57;;;;;;;38.22;17.08;;;3.80;99.90;;;;;;5130199;27;20039;-73
2022/01/10 07:02:23;;;;;;;37.13;16.60;;;4.10;99.90;;;;;;5128580;27;20575;-74
2022/01/10 07:04:49;;;;;;;34.58;16.77;;;4.10;99.90;;;;;;5110170;28;20116;-74
2022/01/10 07:07:15;;;;;;;38.95;17.48;;;2.60;99.90;;;;;;5127530;27;20035;-72
2022/01/10 07:09:40;;;;;;;33.53;17.48;;;3.80;99.90;;;;;;5128809;27;20128;-74
2022/01/10 07:12:07;;;;;;;35.80;15.73;;;3.30;99.90;;;;;;5109109;27;20050;-72
2022/01/10 07:14:34;;;;;;;36.25;17.38;;;3.80;99.90;;;;;;5096744;27;20070;-73
2022/01/10 07:17:00;;;;;;;30.42;15.73;;;3.50;99.90;;;;;;5110289;27;20054;-73
2022/01/10 07:19:26;;;;;;;35.72;16.23;;;3.20;99.90;;;;;;5109442;28;20070;-74
2022/01/10 07:21:52;;;;;;;40.13;17.48;;;2.40;99.90;;;;;;5110152;27;20148;-73
2022/01/10 07:24:18;;;;;;;40.92;18.33;;;2.50;99.90;;;;;;5111786;27;20111;-73
2022/01/10 07:26:44;;;;;;;32.13;17.45;;;2.40;99.90;;;;;;5127910;27;20070;-73
2022/01/10 07:29:11;;;;;;;37.55;16.70;;;2.80;99.90;;;;;;5128348;27;20292;-72
2022/01/10 07:31:38;;;;;;;36.70;16.92;;;2.50;99.90;;;;;;5085942;28;20126;-73
2022/01/10 07:34:05;;;;;;;50.50;20.35;;;3.40;99.90;;;;;;5111821;27;20401;-73
2022/01/10 07:36:32;;;;;;;44.70;20.33;;;3.80;99.90;;;;;;5108563;28;20088;-73
2022/01/10 07:38:58;;;;;;;44.53;20.02;;;3.80;99.90;;;;;;5127064;27;20085;-73
2022/01/10 07:41:23;;;;;;;44.00;19.67;;;2.70;99.90;;;;;;5126717;27;20062;-73
2022/01/10 07:43:50;;;;;;;41.13;19.95;;;2.60;99.90;;;;;;5107277;27;20054;-74
2022/01/10 07:46:20;;;;;;;46.20;20.85;;;3.60;99.90;;;;;;5127480;27;20391;-73
2022/01/10 07:48:47;;;;;;;39.90;18.98;;;3.20;99.90;;;;;;5123633;27;20042;-73
2022/01/10 07:51:13;;;;;;;40.50;18.30;;;2.50;99.90;;;;;;5073103;27;20114;-74
2022/01/10 07:53:40;;;;;;;37.90;17.60;;;3.10;99.90;;;;;;5111948;27;20126;-74
2022/01/10 07:56:06;;;;;;;45.88;20.30;;;3.80;99.90;;;;;;5130338;27;20043;-74
2022/01/10 07:58:33;;;;;;;43.60;19.27;;;2.60;99.90;;;;;;5111735;27;20426;-73
2022/01/10 08:00:59;;;;;;;44.60;19.77;;;2.60;99.90;;;;;;5116751;27;20043;-73
2022/01/10 08:03:25;;;;;;;40.53;18.25;;;3.80;99.90;;;;;;5129080;27;20038;-73
2022/01/10 08:05:50;;;;;;;46.55;19.55;;;2.60;99.90;;;;;;5109831;28;20176;-74
2022/01/10 08:08:16;;;;;;;62.20;22.73;;;2.70;99.90;;;;;;5112481;27;20110;-74
2022/01/10 08:10:42;;;;;;;56.47;22.60;;;4.00;99.90;;;;;;5129670;27;20043;-73
2022/01/10 08:13:08;;;;;;;51.78;21.60;;;2.90;99.90;;;;;;5112162;27;20078;-73
2022/01/10 08:15:34;;;;;;;53.15;24.58;;;4.00;99.90;;;;;;5112093;27;20035;-74
2022/01/10 08:18:00;;;;;;;50.20;21.05;;;3.10;99.90;;;;;;5129496;27;20073;-74
2022/01/10 08:20:26;;;;;;;42.38;19.33;;;3.50;99.90;;;;;;5094909;28;20130;-73
2022/01/10 08:22:51;;;;;;;50.55;20.55;;;4.00;99.90;;;;;;5110058;28;20118;-73
2022/01/10 08:25:17;;;;;;;54.13;22.05;;;3.10;99.90;;;;;;5129076;28;20053;-73
2022/01/10 08:27:43;;;;;;;47.88;21.92;;;3.30;99.90;;;;;;5112098;28;20544;-73
2022/01/10 08:30:10;;;;;;;56.45;24.00;;;4.30;99.90;;;;;;5112126;28;20039;-73
2022/01/10 08:32:36;;;;;;;59.83;24.65;;;3.80;99.90;;;;;;5109756;28;20039;-75
2022/01/10 08:35:03;;;;;;;66.47;25.65;;;3.60;99.90;;;;;;5112556;28;20049;-74
2022/01/10 08:37:29;;;;;;;63.72;25.33;;;3.10;99.90;;;;;;5128182;28;20035;-74
2022/01/10 08:39:54;;;;;;;67.00;26.58;;;4.40;99.90;;;;;;5112544;28;20390;-74
2022/01/10 08:42:22;;;;;;;65.20;26.77;;;4.50;99.90;;;;;;5093363;28;20053;-73
2022/01/10 08:44:48;;;;;;;59.92;24.55;;;4.40;99.90;;;;;;5111631;28;20119;-73
2022/01/10 08:47:15;;;;;;;59.65;25.17;;;3.50;99.90;;;;;;5126295;28;20042;-73
2022/01/10 08:49:42;;;;;;;56.75;24.38;;;3.90;99.90;;;;;;5092507;28;20615;-73
2022/01/10 08:52:08;;;;;;;49.85;22.63;;;4.60;99.90;;;;;;5112001;27;20038;-74
2022/01/10 08:54:34;;;;;;;46.45;20.42;;;3.60;99.90;;;;;;5132287;27;20049;-74
2022/01/10 08:57:01;;;;;;;43.00;21.40;;;3.60;99.90;;;;;;5132782;27;20043;-75
2022/01/10 08:59:28;;;;;;;38.85;19.55;;;4.70;99.90;;;;;;5115606;27;20043;-74
2022/01/10 09:01:55;;;;;;;41.28;20.13;;;4.60;99.90;;;;;;5132647;27;20043;-74
2022/01/10 09:04:21;;;;;;;44.92;22.02;;;3.70;99.90;;;;;;5131910;27;20042;-74
2022/01/10 09:06:49;;;;;;;38.40;19.35;;;4.60;99.90;;;;;;5081595;27;20031;-75
2022/01/10 09:09:16;;;;;;;38.95;19.33;;;4.60;99.90;;;;;;5115716;27;20371;-75
2022/01/10 09:11:42;;;;;;;45.20;19.45;;;4.10;99.90;;;;;;5133506;27;20113;-75
2022/01/10 09:14:09;;;;;;;38.25;19.83;;;4.30;99.90;;;;;;5101589;27;20117;-76
2022/01/10 09:16:35;;;;;;;32.40;18.38;;;4.10;99.90;;;;;;5118596;27;20039;-73
2022/01/10 09:19:01;;;;;;;34.92;17.77;;;3.50;99.90;;;;;;5134699;27;20095;-73
2022/01/10 09:21:26;;;;;;;38.95;19.25;;;4.70;99.90;;;;;;5135339;27;20034;-73
2022/01/10 09:23:52;;;;;;;40.15;21.35;;;4.70;99.90;;;;;;5118827;27;20543;-72
2022/01/10 09:26:18;;;;;;;38.40;22.67;;;4.10;99.90;;;;;;5087505;27;20383;-74
2022/01/10 09:28:44;;;;;;;37.60;21.75;;;4.80;99.90;;;;;;5135275;27;20031;-74
2022/01/10 09:31:10;;;;;;;42.75;24.52;;;5.00;99.90;;;;;;5116757;27;20045;-71
2022/01/10 09:33:36;;;;;;;52.58;26.27;;;5.80;99.90;;;;;;5132135;27;20043;-74
2022/01/10 09:36:04;;;;;;;46.33;28.23;;;4.80;99.90;;;;;;5117440;27;20031;-70
2022/01/10 09:38:29;;;;;;;40.22;22.73;;;5.80;99.90;;;;;;5151723;27;20035;-72
2022/01/10 09:40:55;;;;;;;39.25;20.67;;;6.30;99.90;;;;;;5134531;27;20046;-72
2022/01/10 09:43:21;;;;;;;115.68;21.42;;;6.40;99.90;;;;;;5100269;27;20409;-70
2022/01/10 09:45:48;;;;;;;35.95;16.42;;;6.70;99.90;;;;;;5133104;27;20050;-70
2022/01/10 09:48:14;;;;;;;26.08;14.77;;;7.30;99.90;;;;;;5134521;27;20039;-72
2022/01/10 09:50:41;;;;;;;21.08;12.10;;;6.70;99.90;;;;;;5134195;27;20429;-73
2022/01/10 09:53:07;;;;;;;22.02;12.65;;;6.20;99.90;;;;;;5131554;27;20121;-70
2022/01/10 09:55:34;;;;;;;22.00;13.75;;;6.60;99.90;;;;;;5125796;27;20042;-72
2022/01/10 09:58:03;;;;;;;24.77;12.77;;;6.70;99.90;;;;;;5101062;27;20062;-70
2022/01/10 10:00:29;;;;;;;23.60;11.93;;;6.70;99.90;;;;;;5116247;27;20038;-71
2022/01/10 10:02:55;;;;;;;18.63;11.27;;;6.70;99.90;;;;;;5133122;27;20043;-73
2022/01/10 10:05:21;;;;;;;20.00;13.02;;;7.20;99.90;;;;;;5134121;27;20049;-71
2022/01/10 10:07:48;;;;;;;21.67;12.82;;;7.40;99.90;;;;;;5133295;27;20066;-70
2022/01/10 10:10:17;;;;;;;17.80;11.30;;;7.30;99.90;;;;;;5134063;27;20512;-72
2022/01/10 10:12:46;;;;;;;19.33;11.50;;;7.60;99.90;;;;;;5133155;27;20082;-73
2022/01/10 10:15:15;;;;;;;19.58;12.65;;;7.80;99.90;;;;;;5117558;27;20546;-74
2022/01/10 10:17:42;;;;;;;23.75;13.65;;;7.30;99.90;;;;;;5114485;27;20050;-72
2022/01/10 10:20:17;;;;;;;19.83;11.82;;;7.60;99.90;;;;;;5115573;27;20370;-72
2022/01/10 10:22:45;;;;;;;20.13;12.63;;;7.80;99.90;;;;;;5133651;27;20058;-72
2022/01/10 10:25:12;;;;;;;19.52;12.52;;;7.30;99.90;;;;;;5083821;27;20789;-73
2022/01/10 10:27:43;;;;;;;19.25;11.90;;;6.80;99.90;;;;;;5117669;27;20175;-71
2022/01/10 10:30:13;;;;;;;20.05;13.50;;;6.50;99.90;;;;;;5134989;27;20471;-74
2022/01/10 10:32:39;;;;;;;21.77;13.00;;;6.50;99.90;;;;;;5133937;27;20522;-73
2022/01/10 10:35:07;;;;;;;23.65;13.05;;;5.90;99.90;;;;;;5134492;27;20046;-72
2022/01/10 10:37:40;;;;;;;23.48;13.90;;;5.50;99.90;;;;;;5117033;27;20046;-73
2022/01/10 10:40:09;;;;;;;22.02;13.30;;;5.10;99.90;;;;;;5134754;27;20494;-72
2022/01/10 10:42:39;;;;;;;23.45;13.73;;;5.20;99.90;;;;;;5133142;27;20118;-73
2022/01/10 10:45:08;;;;;;;24.10;14.10;;;5.80;99.90;;;;;;5131638;27;20476;-72
2022/01/10 10:47:35;;;;;;;20.48;14.48;;;5.10;99.90;;;;;;5116503;27;20065;-70
2022/01/10 10:50:05;;;;;;;24.85;14.90;;;5.70;99.90;;;;;;5133850;27;20068;-71
2022/01/10 10:52:33;;;;;;;21.83;13.98;;;5.90;99.90;;;;;;5133180;27;20094;-73
2022/01/10 10:55:08;;;;;;;22.75;14.38;;;6.40;99.90;;;;;;5133099;27;20031;-71
2022/01/10 10:57:35;;;;;;;27.27;16.17;;;6.30;99.90;;;;;;5116452;27;20549;-72
2022/01/10 11:00:03;;;;;;;20.90;13.73;;;6.30;99.90;;;;;;5134858;27;20043;-74
2022/01/10 11:02:28;;;;;;;24.67;14.93;;;5.90;99.90;;;;;;5133621;27;20038;-72
2022/01/10 11:04:54;;;;;;;24.15;15.70;;;6.60;99.90;;;;;;5132604;27;20042;-73
2022/01/10 11:07:27;;;;;;;24.25;14.82;;;6.30;99.90;;;;;;5133824;27;20135;-72
2022/01/10 11:09:53;;;;;;;23.98;14.40;;;6.60;99.90;;;;;;5113062;27;20047;-73
2022/01/10 11:12:23;;;;;;;22.23;14.43;;;6.40;99.90;;;;;;5087305;27;20390;-72
2022/01/10 11:14:52;;;;;;;22.48;14.43;;;6.70;99.90;;;;;;5113865;27;20463;-72
2022/01/10 11:17:22;;;;;;;27.05;15.80;;;6.40;99.90;;;;;;5098776;27;20390;-71
2022/01/10 11:20:17;;;;;;;28.55;14.75;;;6.50;99.90;;;;;;5132807;27;20050;-72
2022/01/10 11:22:56;;;;;;;22.90;14.55;;;6.70;99.90;;;;;;5132761;27;20431;-73
2022/01/10 11:25:29;;;;;;;24.20;14.00;;;6.50;99.90;;;;;;5132516;27;20080;-71
2022/01/10 11:27:57;;;;;;;25.08;14.57;;;6.70;99.90;;;;;;5133029;27;20050;-71
2022/01/10 11:30:30;;;;;;;21.05;13.60;;;6.90;99.90;;;;;;5133322;27;20042;-72
2022/01/10 11:33:09;;;;;;;22.42;13.57;;;6.70;99.90;;;;;;5133133;27;20038;-71
2022/01/10 11:35:37;;;;;;;21.23;13.45;;;6.70;99.90;;;;;;5132359;27;20110;-73
2022/01/10 11:38:20;;;;;;;25.13;14.95;;;6.90;99.90;;;;;;5133091;27;20095;-70
2022/01/10 11:40:52;;;;;;;21.98;12.82;;;6.80;99.90;;;;;;5115652;27;20054;-73
2022/01/10 11:43:38;;;;;;;21.98;13.07;;;6.40;99.90;;;;;;5133238;27;20039;-71
2022/01/10 11:46:23;;;;;;;22.50;13.43;;;6.20;99.90;;;;;;5132034;27;20073;-72
2022/01/10 11:49:13;;;;;;;21.92;13.60;;;6.10;99.90;;;;;;5132689;27;20030;-73
2022/01/10 11:51:42;;;;;;;21.60;13.48;;;6.30;99.90;;;;;;5115270;27;20050;-71
2022/01/10 11:54:15;;;;;;;20.35;12.38;;;6.70;99.90;;;;;;5111211;27;20074;-71
2022/01/10 11:56:50;;;;;;;20.10;12.05;;;7.30;99.90;;;;;;5096591;27;20046;-72
2022/01/10 11:59:17;;;;;;;20.90;13.57;;;7.50;99.90;;;;;;5132679;27;20046;-72
2022/01/10 12:01:49;;;;;;;21.38;13.68;;;7.40;99.90;;;;;;5132651;27;20387;-73
2022/01/10 12:04:15;;;;;;;22.40;12.48;;;7.50;99.90;;;;;;5132278;27;20058;-73
2022/01/10 12:06:42;;;;;;;19.50;11.68;;;7.00;99.90;;;;;;5112274;27;20038;-74
2022/01/10 12:09:08;;;;;;;17.08;10.98;;;7.00;99.90;;;;;;5122602;27;20544;-72
2022/01/10 12:11:36;;;;;;;21.15;12.30;;;7.00;99.90;;;;;;5095128;27;20050;-72
2022/01/10 12:14:02;;;;;;;17.30;11.18;;;6.90;99.90;;;;;;5123205;27;20048;-72
2022/01/10 12:16:28;;;;;;;21.00;12.68;;;6.90;99.90;;;;;;5116111;27;20077;-74
2022/01/10 12:18:55;;;;;;;22.23;11.77;;;6.80;99.90;;;;;;5132748;27;20047;-74
2022/01/10 12:21:20;;;;;;;24.08;12.57;;;7.20;99.90;;;;;;5132534;27;20138;-72
2022/01/10 12:23:47;;;;;;;20.55;12.40;;;7.00;99.90;;;;;;5113602;27;20114;-72
2022/01/10 12:26:13;;;;;;;21.70;10.88;;;6.80;99.90;;;;;;5114863;27;20035;-74
2022/01/10 12:28:40;;;;;;;20.25;11.70;;;6.70;99.90;;;;;;5132466;27;20035;-72
2022/01/10 12:31:06;;;;;;;20.23;11.70;;;6.60;99.90;;;;;;5132712;27;20042;-71
2022/01/10 12:33:33;;;;;;;17.00;11.55;;;6.40;99.90;;;;;;5132062;27;20042;-73
2022/01/10 12:36:02;;;;;;;21.73;11.70;;;6.30;99.90;;;;;;5131597;27;20458;-71
2022/01/10 12:38:28;;;;;;;18.92;12.02;;;6.30;99.90;;;;;;5132805;27;20432;-72
2022/01/10 12:40:54;;;;;;;22.38;11.77;;;6.10;99.90;;;;;;5130717;27;20053;-73
2022/01/10 12:43:20;;;;;;;21.35;12.10;;;6.10;99.90;;;;;;5132360;27;20038;-73
2022/01/10 12:45:47;;;;;;;19.42;11.27;;;6.20;99.90;;;;;;5131565;27;20054;-71
2022/01/10 12:48:14;;;;;;;20.08;12.20;;;6.00;99.90;;;;;;5131885;27;20784;-74
2022/01/10 12:50:41;;;;;;;17.48;10.52;;;6.10;99.90;;;;;;5131152;27;20518;-70
2022/01/10 12:53:07;;;;;;;24.70;11.77;;;6.00;99.90;;;;;;5131426;27;20063;-71